sensor_id;sensor_type;location;lat;lon;timestamp;P1;durP1;ratioP1;P2;durP2;ratioP2
9698;SDS011;10089;47.876;8.346;2022-07-29T00:00:39;4.40;;;3.63;;
9698;SDS011;10089;47.876;8.346;2022-07-29T00:03:05;4.17;;;3.77;;
9698;SDS011;10089;47.876;8.346;2022-07-29T00:05:31;4.43;;;3.90;;
9698;SDS011;10089;47.876;8.346;2022-07-29T00:44:42;5.30;;;3.70;;
9698;SDS011;10089;47.876;8.346;2022-07-29T00:47:09;3.90;;;3.60;;
9698;SDS011;10089;47.876;8.346;2022-07-29T00:49:35;4.03;;;3.60;;
9698;SDS011;10089;47.876;8.346;2022-07-29T00:52:04;4.30;;;3.75;;
9698;SDS011;10089;47.876;8.346;2022-07-29T00:54:30;4.90;;;3.70;;
9698;SDS011;10089;47.876;8.346;2022-07-29T00:57:00;4.00;;;3.50;;
9698;SDS011;10089;47.876;8.346;2022-07-29T00:59:26;3.90;;;3.20;;
9698;SDS011;10089;47.876;8.346;2022-07-29T01:01:53;5.40;;;4.00;;
9698;SDS011;10089;47.876;8.346;2022-07-29T01:04:20;5.03;;;3.47;;
9698;SDS011;10089;47.876;8.346;2022-07-29T01:06:46;4.60;;;3.55;;
9698;SDS011;10089;47.876;8.346;2022-07-29T01:09:13;4.43;;;3.57;;
9698;SDS011;10089;47.876;8.346;2022-07-29T01:11:40;4.80;;;3.65;;
9698;SDS011;10089;47.876;8.346;2022-07-29T01:14:06;7.35;;;4.00;;
9698;SDS011;10089;47.876;8.346;2022-07-29T01:16:35;4.95;;;3.90;;
9698;SDS011;10089;47.876;8.346;2022-07-29T01:20:03;4.10;;;3.70;;
9698;SDS011;10089;47.876;8.346;2022-07-29T01:30:33;4.22;;;3.63;;
9698;SDS011;10089;47.876;8.346;2022-07-29T01:33:04;4.88;;;4.38;;
9698;SDS011;10089;47.876;8.346;2022-07-29T01:35:38;5.22;;;3.85;;
9698;SDS011;10089;47.876;8.346;2022-07-29T01:38:17;4.90;;;4.07;;
9698;SDS011;10089;47.876;8.346;2022-07-29T01:40:51;7.10;;;4.00;;
9698;SDS011;10089;47.876;8.346;2022-07-29T01:43:23;5.55;;;4.00;;
9698;SDS011;10089;47.876;8.346;2022-07-29T01:46:39;4.72;;;3.70;;
9698;SDS011;10089;47.876;8.346;2022-07-29T01:49:27;5.75;;;4.05;;
9698;SDS011;10089;47.876;8.346;2022-07-29T01:51:57;9.18;;;3.95;;
9698;SDS011;10089;47.876;8.346;2022-07-29T01:57:14;3.73;;;3.40;;
9698;SDS011;10089;47.876;8.346;2022-07-29T01:59:45;4.50;;;3.78;;
9698;SDS011;10089;47.876;8.346;2022-07-29T02:02:13;4.72;;;3.97;;
9698;SDS011;10089;47.876;8.346;2022-07-29T02:04:40;4.35;;;3.95;;
9698;SDS011;10089;47.876;8.346;2022-07-29T02:07:08;4.60;;;4.05;;
9698;SDS011;10089;47.876;8.346;2022-07-29T02:09:38;4.32;;;3.70;;
9698;SDS011;10089;47.876;8.346;2022-07-29T02:12:06;8.65;;;4.10;;
9698;SDS011;10089;47.876;8.346;2022-07-29T02:14:34;6.68;;;3.70;;
9698;SDS011;10089;47.876;8.346;2022-07-29T02:17:03;5.07;;;3.95;;
9698;SDS011;10089;47.876;8.346;2022-07-29T02:19:29;4.38;;;3.55;;
9698;SDS011;10089;47.876;8.346;2022-07-29T02:21:57;5.00;;;4.10;;
9698;SDS011;10089;47.876;8.346;2022-07-29T02:24:25;4.25;;;3.67;;
9698;SDS011;10089;47.876;8.346;2022-07-29T02:26:52;4.03;;;3.63;;
9698;SDS011;10089;47.876;8.346;2022-07-29T02:29:21;3.80;;;3.45;;
9698;SDS011;10089;47.876;8.346;2022-07-29T02:31:49;3.50;;;3.20;;
9698;SDS011;10089;47.876;8.346;2022-07-29T02:34:17;6.85;;;3.95;;
9698;SDS011;10089;47.876;8.346;2022-07-29T02:36:44;4.15;;;3.63;;
9698;SDS011;10089;47.876;8.346;2022-07-29T02:39:12;6.60;;;3.63;;
9698;SDS011;10089;47.876;8.346;2022-07-29T02:41:50;4.32;;;3.65;;
9698;SDS011;10089;47.876;8.346;2022-07-29T02:44:18;5.20;;;3.55;;
9698;SDS011;10089;47.876;8.346;2022-07-29T02:46:57;4.55;;;3.90;;
9698;SDS011;10089;47.876;8.346;2022-07-29T02:52:26;4.82;;;3.80;;
9698;SDS011;10089;47.876;8.346;2022-07-29T02:55:23;4.68;;;3.75;;
9698;SDS011;10089;47.876;8.346;2022-07-29T02:58:15;4.05;;;3.65;;
9698;SDS011;10089;47.876;8.346;2022-07-29T03:00:53;5.53;;;4.32;;
9698;SDS011;10089;47.876;8.346;2022-07-29T03:03:24;5.85;;;4.18;;
9698;SDS011;10089;47.876;8.346;2022-07-29T03:05:54;5.55;;;3.95;;
9698;SDS011;10089;47.876;8.346;2022-07-29T03:08:21;5.25;;;4.55;;
9698;SDS011;10089;47.876;8.346;2022-07-29T03:10:49;7.38;;;3.58;;
9698;SDS011;10089;47.876;8.346;2022-07-29T03:13:16;5.90;;;4.03;;
9698;SDS011;10089;47.876;8.346;2022-07-29T03:15:43;4.43;;;3.80;;
9698;SDS011;10089;47.876;8.346;2022-07-29T03:18:10;5.88;;;4.18;;
9698;SDS011;10089;47.876;8.346;2022-07-29T03:20:36;3.90;;;3.47;;
9698;SDS011;10089;47.876;8.346;2022-07-29T03:23:03;4.05;;;3.65;;
9698;SDS011;10089;47.876;8.346;2022-07-29T03:25:29;5.47;;;4.28;;
9698;SDS011;10089;47.876;8.346;2022-07-29T03:27:56;4.10;;;3.60;;
9698;SDS011;10089;47.876;8.346;2022-07-29T03:30:22;4.95;;;3.92;;
9698;SDS011;10089;47.876;8.346;2022-07-29T03:32:48;4.95;;;3.83;;
9698;SDS011;10089;47.876;8.346;2022-07-29T03:35:15;4.07;;;3.65;;
9698;SDS011;10089;47.876;8.346;2022-07-29T03:37:42;4.18;;;3.83;;
9698;SDS011;10089;47.876;8.346;2022-07-29T03:40:08;4.45;;;4.00;;
9698;SDS011;10089;47.876;8.346;2022-07-29T03:42:38;4.93;;;3.65;;
9698;SDS011;10089;47.876;8.346;2022-07-29T03:45:06;4.00;;;3.35;;
9698;SDS011;10089;47.876;8.346;2022-07-29T03:47:34;4.40;;;3.50;;
9698;SDS011;10089;47.876;8.346;2022-07-29T03:50:05;4.68;;;3.95;;
9698;SDS011;10089;47.876;8.346;2022-07-29T03:52:32;6.25;;;3.60;;
9698;SDS011;10089;47.876;8.346;2022-07-29T03:54:59;4.25;;;3.63;;
9698;SDS011;10089;47.876;8.346;2022-07-29T03:57:25;4.97;;;3.90;;
9698;SDS011;10089;47.876;8.346;2022-07-29T03:59:53;4.28;;;3.88;;
9698;SDS011;10089;47.876;8.346;2022-07-29T04:02:20;4.50;;;3.90;;
9698;SDS011;10089;47.876;8.346;2022-07-29T04:04:46;5.28;;;4.00;;
9698;SDS011;10089;47.876;8.346;2022-07-29T04:07:14;6.13;;;3.70;;
9698;SDS011;10089;47.876;8.346;2022-07-29T04:09:40;7.72;;;3.95;;
9698;SDS011;10089;47.876;8.346;2022-07-29T04:12:07;4.70;;;3.90;;
9698;SDS011;10089;47.876;8.346;2022-07-29T04:14:33;5.38;;;4.13;;
9698;SDS011;10089;47.876;8.346;2022-07-29T04:17:00;5.00;;;4.40;;
9698;SDS011;10089;47.876;8.346;2022-07-29T04:19:27;6.40;;;4.10;;
9698;SDS011;10089;47.876;8.346;2022-07-29T04:21:52;4.15;;;3.75;;
9698;SDS011;10089;47.876;8.346;2022-07-29T04:24:18;5.32;;;4.28;;
9698;SDS011;10089;47.876;8.346;2022-07-29T04:26:45;5.10;;;4.05;;
9698;SDS011;10089;47.876;8.346;2022-07-29T04:29:11;4.30;;;3.60;;
9698;SDS011;10089;47.876;8.346;2022-07-29T04:31:39;4.20;;;3.78;;
9698;SDS011;10089;47.876;8.346;2022-07-29T04:34:05;6.20;;;3.60;;
9698;SDS011;10089;47.876;8.346;2022-07-29T04:36:31;5.03;;;3.80;;
9698;SDS011;10089;47.876;8.346;2022-07-29T04:38:56;6.70;;;3.53;;
9698;SDS011;10089;47.876;8.346;2022-07-29T04:41:22;4.40;;;3.50;;
9698;SDS011;10089;47.876;8.346;2022-07-29T04:43:48;3.72;;;3.33;;
9698;SDS011;10089;47.876;8.346;2022-07-29T04:46:14;5.25;;;3.60;;
9698;SDS011;10089;47.876;8.346;2022-07-29T04:48:40;4.28;;;3.50;;
9698;SDS011;10089;47.876;8.346;2022-07-29T04:51:06;3.78;;;3.47;;
9698;SDS011;10089;47.876;8.346;2022-07-29T04:53:32;5.10;;;4.00;;
9698;SDS011;10089;47.876;8.346;2022-07-29T04:55:57;4.43;;;3.63;;
9698;SDS011;10089;47.876;8.346;2022-07-29T04:58:23;4.30;;;2.95;;
9698;SDS011;10089;47.876;8.346;2022-07-29T05:00:49;5.65;;;3.83;;
9698;SDS011;10089;47.876;8.346;2022-07-29T05:03:16;5.32;;;3.95;;
9698;SDS011;10089;47.876;8.346;2022-07-29T05:05:42;4.32;;;3.70;;
9698;SDS011;10089;47.876;8.346;2022-07-29T05:08:07;6.13;;;4.28;;
9698;SDS011;10089;47.876;8.346;2022-07-29T05:10:33;5.13;;;3.80;;
9698;SDS011;10089;47.876;8.346;2022-07-29T05:13:03;5.53;;;4.10;;
9698;SDS011;10089;47.876;8.346;2022-07-29T05:15:35;11.45;;;4.32;;
9698;SDS011;10089;47.876;8.346;2022-07-29T05:18:01;4.50;;;3.97;;
9698;SDS011;10089;47.876;8.346;2022-07-29T05:20:28;4.40;;;4.00;;
9698;SDS011;10089;47.876;8.346;2022-07-29T05:22:55;4.88;;;4.00;;
9698;SDS011;10089;47.876;8.346;2022-07-29T05:25:25;4.80;;;4.13;;
9698;SDS011;10089;47.876;8.346;2022-07-29T05:27:52;4.43;;;3.78;;
9698;SDS011;10089;47.876;8.346;2022-07-29T05:30:18;4.43;;;3.55;;
9698;SDS011;10089;47.876;8.346;2022-07-29T05:32:44;4.55;;;4.03;;
9698;SDS011;10089;47.876;8.346;2022-07-29T05:35:09;4.38;;;3.72;;
9698;SDS011;10089;47.876;8.346;2022-07-29T05:37:36;7.40;;;3.72;;
9698;SDS011;10089;47.876;8.346;2022-07-29T05:40:02;5.57;;;3.47;;
9698;SDS011;10089;47.876;8.346;2022-07-29T05:42:28;5.18;;;3.10;;
9698;SDS011;10089;47.876;8.346;2022-07-29T05:44:54;5.28;;;3.13;;
9698;SDS011;10089;47.876;8.346;2022-07-29T05:47:20;4.85;;;3.40;;
9698;SDS011;10089;47.876;8.346;2022-07-29T05:49:46;3.55;;;3.25;;
9698;SDS011;10089;47.876;8.346;2022-07-29T05:52:12;4.57;;;3.42;;
9698;SDS011;10089;47.876;8.346;2022-07-29T05:54:38;6.28;;;3.30;;
9698;SDS011;10089;47.876;8.346;2022-07-29T05:57:04;5.28;;;3.80;;
9698;SDS011;10089;47.876;8.346;2022-07-29T05:59:30;4.22;;;3.40;;
9698;SDS011;10089;47.876;8.346;2022-07-29T06:01:59;4.82;;;3.28;;
9698;SDS011;10089;47.876;8.346;2022-07-29T06:04:25;7.90;;;3.50;;
9698;SDS011;10089;47.876;8.346;2022-07-29T06:06:51;4.82;;;3.65;;
9698;SDS011;10089;47.876;8.346;2022-07-29T06:09:17;8.07;;;3.80;;
9698;SDS011;10089;47.876;8.346;2022-07-29T06:11:42;4.57;;;3.80;;
9698;SDS011;10089;47.876;8.346;2022-07-29T06:14:08;5.57;;;4.32;;
9698;SDS011;10089;47.876;8.346;2022-07-29T06:16:34;4.07;;;3.53;;
9698;SDS011;10089;47.876;8.346;2022-07-29T06:19:00;4.43;;;3.92;;
9698;SDS011;10089;47.876;8.346;2022-07-29T06:21:25;7.10;;;3.33;;
9698;SDS011;10089;47.876;8.346;2022-07-29T06:23:51;5.05;;;4.00;;
9698;SDS011;10089;47.876;8.346;2022-07-29T06:26:17;7.03;;;4.32;;
9698;SDS011;10089;47.876;8.346;2022-07-29T06:28:43;4.68;;;4.20;;
9698;SDS011;10089;47.876;8.346;2022-07-29T06:31:08;7.78;;;4.20;;
9698;SDS011;10089;47.876;8.346;2022-07-29T06:33:34;6.05;;;4.35;;
9698;SDS011;10089;47.876;8.346;2022-07-29T06:36:00;7.15;;;4.25;;
9698;SDS011;10089;47.876;8.346;2022-07-29T06:38:28;7.03;;;4.50;;
9698;SDS011;10089;47.876;8.346;2022-07-29T06:40:53;12.18;;;7.30;;
9698;SDS011;10089;47.876;8.346;2022-07-29T06:43:31;8.10;;;5.07;;
9698;SDS011;10089;47.876;8.346;2022-07-29T06:45:59;8.18;;;4.20;;
9698;SDS011;10089;47.876;8.346;2022-07-29T06:48:26;4.95;;;4.45;;
9698;SDS011;10089;47.876;8.346;2022-07-29T06:50:52;7.10;;;4.50;;
9698;SDS011;10089;47.876;8.346;2022-07-29T06:53:18;7.30;;;4.22;;
9698;SDS011;10089;47.876;8.346;2022-07-29T06:55:44;4.53;;;4.13;;
9698;SDS011;10089;47.876;8.346;2022-07-29T06:58:10;5.53;;;4.10;;
9698;SDS011;10089;47.876;8.346;2022-07-29T07:00:36;5.65;;;4.53;;
9698;SDS011;10089;47.876;8.346;2022-07-29T07:03:02;4.95;;;4.20;;
9698;SDS011;10089;47.876;8.346;2022-07-29T07:05:28;15.32;;;12.52;;
9698;SDS011;10089;47.876;8.346;2022-07-29T07:07:54;12.95;;;11.52;;
9698;SDS011;10089;47.876;8.346;2022-07-29T07:10:19;10.70;;;8.65;;
9698;SDS011;10089;47.876;8.346;2022-07-29T07:12:45;5.45;;;4.95;;
9698;SDS011;10089;47.876;8.346;2022-07-29T07:15:11;7.65;;;5.90;;
9698;SDS011;10089;47.876;8.346;2022-07-29T07:17:37;7.63;;;6.78;;
9698;SDS011;10089;47.876;8.346;2022-07-29T07:20:03;5.45;;;4.72;;
9698;SDS011;10089;47.876;8.346;2022-07-29T07:22:30;7.78;;;4.93;;
9698;SDS011;10089;47.876;8.346;2022-07-29T07:24:56;7.10;;;5.05;;
9698;SDS011;10089;47.876;8.346;2022-07-29T07:27:22;12.73;;;8.70;;
9698;SDS011;10089;47.876;8.346;2022-07-29T07:29:47;24.30;;;17.50;;
9698;SDS011;10089;47.876;8.346;2022-07-29T07:32:13;5.85;;;5.25;;
9698;SDS011;10089;47.876;8.346;2022-07-29T07:34:41;5.93;;;4.80;;
9698;SDS011;10089;47.876;8.346;2022-07-29T07:37:08;7.80;;;4.93;;
9698;SDS011;10089;47.876;8.346;2022-07-29T07:39:34;10.32;;;7.03;;
9698;SDS011;10089;47.876;8.346;2022-07-29T07:42:00;4.95;;;4.55;;
9698;SDS011;10089;47.876;8.346;2022-07-29T07:44:26;23.80;;;17.52;;
9698;SDS011;10089;47.876;8.346;2022-07-29T07:46:52;7.95;;;6.70;;
9698;SDS011;10089;47.876;8.346;2022-07-29T07:49:17;7.03;;;4.85;;
9698;SDS011;10089;47.876;8.346;2022-07-29T07:51:43;6.03;;;4.75;;
9698;SDS011;10089;47.876;8.346;2022-07-29T07:54:09;5.95;;;5.35;;
9698;SDS011;10089;47.876;8.346;2022-07-29T07:56:35;8.13;;;4.82;;
9698;SDS011;10089;47.876;8.346;2022-07-29T07:59:00;7.80;;;5.40;;
9698;SDS011;10089;47.876;8.346;2022-07-29T08:01:26;10.70;;;4.85;;
9698;SDS011;10089;47.876;8.346;2022-07-29T08:03:52;7.43;;;4.50;;
9698;SDS011;10089;47.876;8.346;2022-07-29T08:06:17;5.38;;;4.03;;
9698;SDS011;10089;47.876;8.346;2022-07-29T08:08:43;4.80;;;4.40;;
9698;SDS011;10089;47.876;8.346;2022-07-29T08:11:09;5.50;;;4.13;;
9698;SDS011;10089;47.876;8.346;2022-07-29T08:13:35;6.32;;;4.18;;
9698;SDS011;10089;47.876;8.346;2022-07-29T08:16:01;5.45;;;4.90;;
9698;SDS011;10089;47.876;8.346;2022-07-29T08:18:36;6.82;;;4.95;;
9698;SDS011;10089;47.876;8.346;2022-07-29T08:21:03;5.18;;;4.45;;
9698;SDS011;10089;47.876;8.346;2022-07-29T08:23:29;6.45;;;4.90;;
9698;SDS011;10089;47.876;8.346;2022-07-29T08:26:07;9.48;;;4.50;;
9698;SDS011;10089;47.876;8.346;2022-07-29T08:28:38;6.88;;;4.28;;
9698;SDS011;10089;47.876;8.346;2022-07-29T08:31:05;5.40;;;4.50;;
9698;SDS011;10089;47.876;8.346;2022-07-29T08:33:32;7.50;;;5.55;;
9698;SDS011;10089;47.876;8.346;2022-07-29T08:35:58;8.05;;;6.13;;
9698;SDS011;10089;47.876;8.346;2022-07-29T08:38:24;7.10;;;5.03;;
9698;SDS011;10089;47.876;8.346;2022-07-29T08:40:51;7.20;;;4.68;;
9698;SDS011;10089;47.876;8.346;2022-07-29T08:43:17;6.50;;;4.10;;
9698;SDS011;10089;47.876;8.346;2022-07-29T08:45:45;5.95;;;4.38;;
9698;SDS011;10089;47.876;8.346;2022-07-29T08:48:12;4.47;;;4.07;;
9698;SDS011;10089;47.876;8.346;2022-07-29T08:50:40;4.78;;;3.90;;
9698;SDS011;10089;47.876;8.346;2022-07-29T08:53:07;4.85;;;4.35;;
9698;SDS011;10089;47.876;8.346;2022-07-29T08:55:38;11.93;;;4.63;;
9698;SDS011;10089;47.876;8.346;2022-07-29T08:58:11;6.05;;;3.75;;
9698;SDS011;10089;47.876;8.346;2022-07-29T09:00:41;3.75;;;3.20;;
9698;SDS011;10089;47.876;8.346;2022-07-29T09:03:09;4.20;;;3.72;;
9698;SDS011;10089;47.876;8.346;2022-07-29T09:05:37;2.97;;;2.70;;
9698;SDS011;10089;47.876;8.346;2022-07-29T09:08:07;5.15;;;3.05;;
9698;SDS011;10089;47.876;8.346;2022-07-29T09:10:34;6.82;;;3.05;;
9698;SDS011;10089;47.876;8.346;2022-07-29T09:13:00;3.03;;;2.72;;
9698;SDS011;10089;47.876;8.346;2022-07-29T09:15:26;3.25;;;2.60;;
9698;SDS011;10089;47.876;8.346;2022-07-29T09:17:52;2.55;;;2.30;;
9698;SDS011;10089;47.876;8.346;2022-07-29T09:20:20;3.75;;;2.70;;
9698;SDS011;10089;47.876;8.346;2022-07-29T09:22:48;4.38;;;2.67;;
9698;SDS011;10089;47.876;8.346;2022-07-29T09:25:38;4.40;;;2.38;;
9698;SDS011;10089;47.876;8.346;2022-07-29T09:28:09;6.82;;;2.42;;
9698;SDS011;10089;47.876;8.346;2022-07-29T09:30:52;2.92;;;2.10;;
9698;SDS011;10089;47.876;8.346;2022-07-29T09:33:21;4.20;;;2.28;;
9698;SDS011;10089;47.876;8.346;2022-07-29T09:38:30;2.10;;;1.85;;
9698;SDS011;10089;47.876;8.346;2022-07-29T09:40:57;2.38;;;2.15;;
9698;SDS011;10089;47.876;8.346;2022-07-29T09:43:27;2.92;;;2.20;;
9698;SDS011;10089;47.876;8.346;2022-07-29T09:45:53;3.00;;;2.10;;
9698;SDS011;10089;47.876;8.346;2022-07-29T09:48:25;4.35;;;2.15;;
9698;SDS011;10089;47.876;8.346;2022-07-29T09:50:50;4.95;;;2.38;;
9698;SDS011;10089;47.876;8.346;2022-07-29T09:53:33;2.47;;;2.28;;
9698;SDS011;10089;47.876;8.346;2022-07-29T09:56:00;2.70;;;2.40;;
9698;SDS011;10089;47.876;8.346;2022-07-29T09:58:26;3.45;;;2.30;;
9698;SDS011;10089;47.876;8.346;2022-07-29T10:00:53;3.95;;;2.80;;
9698;SDS011;10089;47.876;8.346;2022-07-29T10:03:20;3.00;;;2.10;;
9698;SDS011;10089;47.876;8.346;2022-07-29T10:06:03;3.85;;;2.42;;
9698;SDS011;10089;47.876;8.346;2022-07-29T10:08:32;2.25;;;2.05;;
9698;SDS011;10089;47.876;8.346;2022-07-29T10:11:14;4.82;;;2.13;;
9698;SDS011;10089;47.876;8.346;2022-07-29T10:13:41;3.10;;;2.10;;
9698;SDS011;10089;47.876;8.346;2022-07-29T10:16:08;6.40;;;2.28;;
9698;SDS011;10089;47.876;8.346;2022-07-29T10:18:34;2.85;;;2.03;;
9698;SDS011;10089;47.876;8.346;2022-07-29T10:21:00;2.08;;;1.80;;
9698;SDS011;10089;47.876;8.346;2022-07-29T10:23:27;4.10;;;1.90;;
9698;SDS011;10089;47.876;8.346;2022-07-29T10:25:54;2.72;;;1.88;;
9698;SDS011;10089;47.876;8.346;2022-07-29T10:28:20;5.80;;;2.15;;
9698;SDS011;10089;47.876;8.346;2022-07-29T10:30:46;2.13;;;1.75;;
9698;SDS011;10089;47.876;8.346;2022-07-29T10:41:59;3.40;;;1.90;;
9698;SDS011;10089;47.876;8.346;2022-07-29T10:44:39;2.90;;;1.48;;
9698;SDS011;10089;47.876;8.346;2022-07-29T10:47:06;2.35;;;1.48;;
9698;SDS011;10089;47.876;8.346;2022-07-29T10:49:32;3.78;;;1.70;;
9698;SDS011;10089;47.876;8.346;2022-07-29T10:52:03;1.85;;;1.50;;
9698;SDS011;10089;47.876;8.346;2022-07-29T10:59:51;4.72;;;1.70;;
9698;SDS011;10089;47.876;8.346;2022-07-29T11:05:07;3.53;;;1.70;;
9698;SDS011;10089;47.876;8.346;2022-07-29T11:07:34;2.65;;;1.70;;
9698;SDS011;10089;47.876;8.346;2022-07-29T11:23:27;2.60;;;1.70;;
9698;SDS011;10089;47.876;8.346;2022-07-29T11:29:23;4.10;;;1.60;;
9698;SDS011;10089;47.876;8.346;2022-07-29T11:31:46;4.40;;;1.70;;
9698;SDS011;10089;47.876;8.346;2022-07-29T11:47:24;2.30;;;1.70;;
9698;SDS011;10089;47.876;8.346;2022-07-29T11:54:43;3.55;;;1.70;;
9698;SDS011;10089;47.876;8.346;2022-07-29T11:57:12;3.30;;;1.90;;
9698;SDS011;10089;47.876;8.346;2022-07-29T12:02:07;2.50;;;1.70;;
9698;SDS011;10089;47.876;8.346;2022-07-29T12:04:34;3.05;;;2.05;;
9698;SDS011;10089;47.876;8.346;2022-07-29T12:07:16;2.00;;;1.50;;
9698;SDS011;10089;47.876;8.346;2022-07-29T12:19:54;4.70;;;2.05;;
9698;SDS011;10089;47.876;8.346;2022-07-29T12:22:25;2.73;;;2.43;;
9698;SDS011;10089;47.876;8.346;2022-07-29T12:24:59;4.30;;;2.00;;
9698;SDS011;10089;47.876;8.346;2022-07-29T12:27:27;3.20;;;2.80;;
9698;SDS011;10089;47.876;8.346;2022-07-29T12:29:57;5.25;;;2.85;;
9698;SDS011;10089;47.876;8.346;2022-07-29T12:32:31;4.50;;;2.50;;
9698;SDS011;10089;47.876;8.346;2022-07-29T12:35:03;5.00;;;2.80;;
9698;SDS011;10089;47.876;8.346;2022-07-29T12:37:38;2.45;;;2.22;;
9698;SDS011;10089;47.876;8.346;2022-07-29T12:40:06;4.80;;;2.97;;
9698;SDS011;10089;47.876;8.346;2022-07-29T12:42:34;4.70;;;2.42;;
9698;SDS011;10089;47.876;8.346;2022-07-29T12:45:00;4.93;;;3.17;;
9698;SDS011;10089;47.876;8.346;2022-07-29T12:47:26;7.63;;;2.83;;
9698;SDS011;10089;47.876;8.346;2022-07-29T12:50:12;2.97;;;2.63;;
9698;SDS011;10089;47.876;8.346;2022-07-29T12:52:43;6.32;;;2.90;;
9698;SDS011;10089;47.876;8.346;2022-07-29T12:55:10;5.07;;;3.03;;
9698;SDS011;10089;47.876;8.346;2022-07-29T13:00:12;2.85;;;2.50;;
9698;SDS011;10089;47.876;8.346;2022-07-29T13:02:40;3.45;;;2.28;;
9698;SDS011;10089;47.876;8.346;2022-07-29T13:05:07;4.40;;;2.60;;
9698;SDS011;10089;47.876;8.346;2022-07-29T13:07:35;3.15;;;2.90;;
9698;SDS011;10089;47.876;8.346;2022-07-29T13:15:13;6.10;;;3.20;;
9698;SDS011;10089;47.876;8.346;2022-07-29T13:17:40;4.60;;;2.50;;
9698;SDS011;10089;47.876;8.346;2022-07-29T13:20:09;3.80;;;2.20;;
9698;SDS011;10089;47.876;8.346;2022-07-29T13:22:39;5.15;;;2.40;;
9698;SDS011;10089;47.876;8.346;2022-07-29T13:25:07;3.80;;;2.10;;
9698;SDS011;10089;47.876;8.346;2022-07-29T13:30:02;5.30;;;2.50;;
9698;SDS011;10089;47.876;8.346;2022-07-29T13:37:23;4.20;;;2.60;;
9698;SDS011;10089;47.876;8.346;2022-07-29T13:39:48;3.60;;;2.20;;
9698;SDS011;10089;47.876;8.346;2022-07-29T13:44:48;5.00;;;2.30;;
9698;SDS011;10089;47.876;8.346;2022-07-29T13:52:07;6.00;;;2.60;;
9698;SDS011;10089;47.876;8.346;2022-07-29T13:59:26;4.20;;;2.50;;
9698;SDS011;10089;47.876;8.346;2022-07-29T14:04:17;6.00;;;2.90;;
9698;SDS011;10089;47.876;8.346;2022-07-29T14:06:43;5.90;;;2.80;;
9698;SDS011;10089;47.876;8.346;2022-07-29T14:09:09;9.10;;;3.10;;
9698;SDS011;10089;47.876;8.346;2022-07-29T14:11:35;4.68;;;2.85;;
9698;SDS011;10089;47.876;8.346;2022-07-29T14:14:03;3.13;;;2.80;;
9698;SDS011;10089;47.876;8.346;2022-07-29T14:21:20;4.05;;;2.80;;
9698;SDS011;10089;47.876;8.346;2022-07-29T14:23:45;6.05;;;2.45;;
9698;SDS011;10089;47.876;8.346;2022-07-29T14:35:54;8.90;;;2.60;;
9698;SDS011;10089;47.876;8.346;2022-07-29T15:12:19;3.40;;;2.00;;
9698;SDS011;10089;47.876;8.346;2022-07-29T15:17:10;3.30;;;2.30;;
9698;SDS011;10089;47.876;8.346;2022-07-29T15:43:55;3.00;;;2.10;;
9698;SDS011;10089;47.876;8.346;2022-07-29T15:51:31;2.60;;;2.10;;
9698;SDS011;10089;47.876;8.346;2022-07-29T18:42:03;3.40;;;2.90;;
9698;SDS011;10089;47.876;8.346;2022-07-29T18:44:29;3.53;;;2.80;;
9698;SDS011;10089;47.876;8.346;2022-07-29T18:46:55;5.10;;;3.40;;
9698;SDS011;10089;47.876;8.346;2022-07-29T18:49:21;5.30;;;3.10;;
9698;SDS011;10089;47.876;8.346;2022-07-29T18:51:47;5.07;;;2.97;;
9698;SDS011;10089;47.876;8.346;2022-07-29T18:54:13;4.88;;;2.85;;
9698;SDS011;10089;47.876;8.346;2022-07-29T18:56:41;5.75;;;3.35;;
9698;SDS011;10089;47.876;8.346;2022-07-29T18:59:07;5.63;;;3.13;;
9698;SDS011;10089;47.876;8.346;2022-07-29T19:01:33;4.05;;;3.38;;
9698;SDS011;10089;47.876;8.346;2022-07-29T19:04:00;3.55;;;3.20;;
9698;SDS011;10089;47.876;8.346;2022-07-29T19:06:26;4.85;;;3.30;;
9698;SDS011;10089;47.876;8.346;2022-07-29T19:08:51;6.20;;;3.20;;
9698;SDS011;10089;47.876;8.346;2022-07-29T19:11:18;5.60;;;3.33;;
9698;SDS011;10089;47.876;8.346;2022-07-29T19:13:43;6.05;;;3.90;;
9698;SDS011;10089;47.876;8.346;2022-07-29T19:16:09;4.63;;;3.65;;
9698;SDS011;10089;47.876;8.346;2022-07-29T19:18:37;4.20;;;3.80;;
9698;SDS011;10089;47.876;8.346;2022-07-29T19:21:03;4.22;;;3.80;;
9698;SDS011;10089;47.876;8.346;2022-07-29T19:23:29;7.38;;;3.90;;
9698;SDS011;10089;47.876;8.346;2022-07-29T19:25:55;5.55;;;3.80;;
9698;SDS011;10089;47.876;8.346;2022-07-29T19:28:22;6.25;;;4.03;;
9698;SDS011;10089;47.876;8.346;2022-07-29T19:30:49;4.70;;;4.15;;
9698;SDS011;10089;47.876;8.346;2022-07-29T19:33:15;4.50;;;4.10;;
9698;SDS011;10089;47.876;8.346;2022-07-29T19:35:43;5.28;;;4.50;;
9698;SDS011;10089;47.876;8.346;2022-07-29T19:38:10;6.45;;;4.70;;
9698;SDS011;10089;47.876;8.346;2022-07-29T19:40:36;5.43;;;4.65;;
9698;SDS011;10089;47.876;8.346;2022-07-29T19:45:32;5.78;;;5.20;;
9698;SDS011;10089;47.876;8.346;2022-07-29T19:47:58;10.20;;;5.30;;
9698;SDS011;10089;47.876;8.346;2022-07-29T19:50:24;5.80;;;5.18;;
9698;SDS011;10089;47.876;8.346;2022-07-29T19:52:51;5.53;;;5.03;;
9698;SDS011;10089;47.876;8.346;2022-07-29T19:55:17;5.45;;;4.95;;
9698;SDS011;10089;47.876;8.346;2022-07-29T19:57:43;5.90;;;4.72;;
9698;SDS011;10089;47.876;8.346;2022-07-29T20:00:10;5.35;;;4.40;;
9698;SDS011;10089;47.876;8.346;2022-07-29T20:02:37;6.35;;;4.20;;
9698;SDS011;10089;47.876;8.346;2022-07-29T20:05:04;7.05;;;4.20;;
9698;SDS011;10089;47.876;8.346;2022-07-29T20:07:30;5.57;;;4.18;;
9698;SDS011;10089;47.876;8.346;2022-07-29T20:09:56;4.38;;;3.97;;
9698;SDS011;10089;47.876;8.346;2022-07-29T20:12:21;5.13;;;3.90;;
9698;SDS011;10089;47.876;8.346;2022-07-29T20:14:48;4.72;;;3.65;;
9698;SDS011;10089;47.876;8.346;2022-07-29T20:17:14;6.43;;;3.83;;
9698;SDS011;10089;47.876;8.346;2022-07-29T20:19:40;4.47;;;4.07;;
9698;SDS011;10089;47.876;8.346;2022-07-29T20:22:07;5.55;;;4.10;;
9698;SDS011;10089;47.876;8.346;2022-07-29T20:24:32;5.93;;;4.03;;
9698;SDS011;10089;47.876;8.346;2022-07-29T20:26:58;4.63;;;3.53;;
9698;SDS011;10089;47.876;8.346;2022-07-29T20:29:24;6.15;;;4.32;;
9698;SDS011;10089;47.876;8.346;2022-07-29T20:31:50;9.82;;;4.40;;
9698;SDS011;10089;47.876;8.346;2022-07-29T20:34:16;5.18;;;4.03;;
9698;SDS011;10089;47.876;8.346;2022-07-29T20:36:41;4.70;;;3.70;;
9698;SDS011;10089;47.876;8.346;2022-07-29T20:39:08;6.05;;;3.92;;
9698;SDS011;10089;47.876;8.346;2022-07-29T20:41:34;6.80;;;3.58;;
9698;SDS011;10089;47.876;8.346;2022-07-29T20:44:00;3.95;;;3.58;;
9698;SDS011;10089;47.876;8.346;2022-07-29T20:46:27;7.22;;;3.50;;
9698;SDS011;10089;47.876;8.346;2022-07-29T20:48:53;3.33;;;2.95;;
9698;SDS011;10089;47.876;8.346;2022-07-29T20:51:19;5.90;;;3.20;;
9698;SDS011;10089;47.876;8.346;2022-07-29T20:53:45;6.93;;;3.15;;
9698;SDS011;10089;47.876;8.346;2022-07-29T20:56:11;6.82;;;3.53;;
9698;SDS011;10089;47.876;8.346;2022-07-29T20:58:38;6.07;;;3.33;;
9698;SDS011;10089;47.876;8.346;2022-07-29T21:01:05;4.60;;;3.13;;
9698;SDS011;10089;47.876;8.346;2022-07-29T21:03:31;5.95;;;3.45;;
9698;SDS011;10089;47.876;8.346;2022-07-29T21:05:57;5.32;;;3.30;;
9698;SDS011;10089;47.876;8.346;2022-07-29T21:08:24;4.10;;;2.90;;
9698;SDS011;10089;47.876;8.346;2022-07-29T21:10:50;5.65;;;3.03;;
9698;SDS011;10089;47.876;8.346;2022-07-29T21:13:16;8.18;;;3.70;;
9698;SDS011;10089;47.876;8.346;2022-07-29T21:15:44;3.42;;;3.13;;
9698;SDS011;10089;47.876;8.346;2022-07-29T21:18:13;5.70;;;3.20;;
9698;SDS011;10089;47.876;8.346;2022-07-29T21:20:52;6.30;;;3.63;;
9698;SDS011;10089;47.876;8.346;2022-07-29T21:23:18;5.38;;;3.63;;
9698;SDS011;10089;47.876;8.346;2022-07-29T21:25:44;5.97;;;3.47;;
9698;SDS011;10089;47.876;8.346;2022-07-29T21:28:10;6.13;;;3.83;;
9698;SDS011;10089;47.876;8.346;2022-07-29T21:30:58;4.20;;;3.35;;
9698;SDS011;10089;47.876;8.346;2022-07-29T21:33:26;4.80;;;3.53;;
9698;SDS011;10089;47.876;8.346;2022-07-29T21:35:53;5.72;;;3.42;;
9698;SDS011;10089;47.876;8.346;2022-07-29T21:38:19;4.00;;;3.38;;
9698;SDS011;10089;47.876;8.346;2022-07-29T21:40:45;7.78;;;3.63;;
9698;SDS011;10089;47.876;8.346;2022-07-29T21:43:11;5.13;;;3.15;;